createdAt,value
2022-12-03T00:00:54.116Z,79.90
2022-12-03T00:01:54.135Z,80.30
2022-12-03T00:02:54.245Z,80.36
2022-12-03T00:03:54.312Z,79.86
2022-12-03T00:04:54.360Z,79.96
2022-12-03T00:05:54.151Z,80.06
2022-12-03T00:06:54.058Z,79.96
2022-12-03T00:07:54.104Z,80.06
2022-12-03T00:08:54.071Z,80.46
2022-12-03T00:09:53.989Z,80.16
2022-12-03T00:10:54.086Z,80.16
2022-12-03T00:11:54.108Z,80.36
2022-12-03T00:12:53.997Z,80.36
2022-12-03T00:13:54.011Z,80.76
2022-12-03T00:14:54.306Z,80.86
2022-12-03T00:15:54.090Z,80.56
2022-12-03T00:16:54.206Z,80.26
2022-12-03T00:17:53.921Z,80.36
2022-12-03T00:18:54.038Z,80.56
2022-12-03T00:19:54.869Z,80.86
2022-12-03T00:20:54.680Z,79.66
2022-12-03T00:21:53.957Z,80.46
2022-12-03T00:22:54.030Z,80.66
2022-12-03T00:23:53.877Z,80.86
2022-12-03T00:24:54.159Z,80.56
2022-12-03T00:25:53.803Z,80.66
2022-12-03T00:26:53.886Z,80.46
2022-12-03T00:27:53.898Z,80.76
2022-12-03T00:28:54.027Z,81.16
2022-12-03T00:29:53.815Z,81.16
2022-12-03T00:30:54.065Z,80.96
2022-12-03T00:31:53.959Z,81.06
2022-12-03T00:32:53.867Z,81.16
2022-12-03T00:33:53.733Z,81.00
2022-12-03T00:34:54.946Z,81.40
2022-12-03T00:35:53.763Z,81.20
2022-12-03T00:36:53.873Z,81.49
2022-12-03T00:37:53.683Z,81.90
2022-12-03T00:38:53.678Z,81.70
2022-12-03T00:39:53.693Z,81.90
2022-12-03T00:40:55.035Z,82.29
2022-12-03T00:41:53.814Z,82.09
2022-12-03T00:42:53.799Z,81.99
2022-12-03T00:43:53.717Z,82.29
2022-12-03T00:44:53.832Z,82.29
2022-12-03T00:45:53.738Z,82.29
2022-12-03T00:46:53.842Z,82.29
2022-12-03T00:47:53.719Z,82.29
2022-12-03T00:48:53.771Z,82.09
2022-12-03T00:49:53.662Z,82.20
2022-12-03T00:50:53.686Z,82.20
2022-12-03T00:51:53.572Z,82.59
2022-12-03T00:52:53.974Z,82.50
2022-12-03T00:53:53.904Z,81.79
2022-12-03T00:54:53.913Z,82.20
2022-12-03T00:55:53.701Z,81.99
2022-12-03T00:56:53.869Z,82.39
2022-12-03T00:57:53.568Z,82.09
2022-12-03T00:58:53.616Z,81.99
2022-12-03T00:59:53.527Z,81.90
2022-12-03T01:00:53.629Z,82.39
2022-12-03T01:01:53.747Z,82.79
2022-12-03T01:02:53.535Z,82.09
2022-12-03T01:03:53.386Z,81.70
2022-12-03T01:04:53.957Z,80.80
2022-12-03T01:05:53.403Z,81.60
2022-12-03T01:06:53.405Z,81.70
2022-12-03T01:07:53.501Z,81.00
2022-12-03T01:08:53.485Z,81.30
2022-12-03T01:09:53.353Z,81.60
2022-12-03T01:10:53.360Z,81.40
2022-12-03T01:11:53.392Z,81.70
2022-12-03T01:12:53.416Z,81.79
2022-12-03T01:13:53.309Z,81.10
2022-12-03T01:14:53.646Z,80.80
2022-12-03T01:15:53.444Z,80.80
2022-12-03T01:16:53.336Z,81.49
2022-12-03T01:17:53.328Z,81.60
2022-12-03T01:18:53.323Z,81.60
2022-12-03T01:19:53.255Z,81.49
2022-12-03T01:20:53.332Z,81.30
2022-12-03T01:21:53.229Z,81.79
2022-12-03T01:22:53.277Z,81.70
2022-12-03T01:23:53.275Z,81.60
2022-12-03T01:24:53.465Z,82.20
2022-12-03T01:25:53.163Z,82.09
2022-12-03T01:26:53.222Z,82.20
2022-12-03T01:27:53.258Z,82.29
2022-12-03T01:28:53.214Z,82.20
2022-12-03T01:29:53.219Z,82.20
2022-12-03T01:30:53.281Z,82.20
2022-12-03T01:31:53.227Z,82.50
2022-12-03T01:32:53.132Z,82.59
2022-12-03T01:33:53.139Z,82.09
2022-12-03T01:34:53.709Z,82.20
2022-12-03T01:35:53.127Z,82.39
2022-12-03T01:36:53.160Z,82.39
2022-12-03T01:37:53.169Z,82.79
2022-12-03T01:38:53.174Z,82.69
2022-12-03T01:39:53.184Z,82.59
2022-12-03T01:40:53.497Z,82.59
2022-12-03T01:41:53.105Z,82.59
2022-12-03T01:42:53.209Z,82.59
2022-12-03T01:43:53.632Z,82.29
2022-12-03T01:44:53.321Z,82.15
2022-12-03T01:45:53.021Z,82.35
2022-12-03T01:46:54.230Z,82.35
2022-12-03T01:47:53.033Z,82.20
2022-12-03T01:48:53.104Z,81.30
2022-12-03T01:49:53.049Z,80.90
2022-12-03T01:50:52.918Z,81.70
2022-12-03T01:51:53.059Z,81.40
2022-12-03T01:52:53.069Z,81.79
2022-12-03T01:53:53.790Z,82.29
2022-12-03T01:54:53.463Z,82.39
2022-12-03T01:55:53.097Z,82.20
2022-12-03T01:56:52.885Z,82.29
2022-12-03T01:57:52.895Z,82.09
2022-12-03T01:58:53.209Z,82.29
2022-12-03T01:59:52.876Z,82.09
2022-12-03T02:00:52.927Z,82.20
2022-12-03T02:01:52.980Z,82.29
2022-12-03T02:02:53.641Z,82.39
2022-12-03T02:03:52.910Z,82.50
2022-12-03T02:04:53.101Z,82.69
2022-12-03T02:05:52.847Z,82.69
2022-12-03T02:06:52.856Z,82.50
2022-12-03T02:07:52.792Z,82.50
2022-12-03T02:08:52.764Z,82.50
2022-12-03T02:09:52.743Z,82.59
2022-12-03T02:10:52.752Z,82.59
2022-12-03T02:11:52.687Z,82.79
2022-12-03T02:12:52.692Z,82.79
2022-12-03T02:13:52.692Z,83.00
2022-12-03T02:14:53.100Z,82.89
2022-12-03T02:15:52.797Z,82.69
2022-12-03T02:16:52.810Z,82.09
2022-12-03T02:17:52.692Z,82.09
2022-12-03T02:18:53.545Z,82.29
2022-12-03T02:19:52.744Z,82.29
2022-12-03T02:20:52.714Z,82.50
2022-12-03T02:21:52.750Z,82.50
2022-12-03T02:22:53.059Z,82.79
2022-12-03T02:23:52.660Z,82.79
2022-12-03T02:24:53.146Z,82.89
2022-12-03T02:25:52.567Z,82.89
2022-12-03T02:26:52.683Z,82.50
2022-12-03T02:27:52.584Z,82.93
2022-12-03T02:28:53.004Z,83.23
2022-12-03T02:29:52.593Z,83.33
2022-12-03T02:30:52.609Z,83.33
2022-12-03T02:31:52.575Z,83.43
2022-12-03T02:32:52.520Z,83.29
2022-12-03T02:33:52.520Z,83.39
2022-12-03T02:34:52.804Z,83.39
2022-12-03T02:35:52.503Z,83.29
2022-12-03T02:36:52.407Z,83.49
2022-12-03T02:37:52.436Z,83.49
2022-12-03T02:38:52.447Z,83.53
2022-12-03T02:39:52.453Z,83.63
2022-12-03T02:40:52.458Z,83.59
2022-12-03T02:41:52.443Z,83.13
2022-12-03T02:42:52.375Z,83.23
2022-12-03T02:43:52.383Z,83.63
2022-12-03T02:44:52.755Z,83.83
2022-12-03T02:45:52.468Z,83.43
2022-12-03T02:46:52.446Z,83.93
2022-12-03T02:47:52.410Z,84.13
2022-12-03T02:48:52.310Z,83.93
2022-12-03T02:49:52.324Z,83.93
2022-12-03T02:50:52.404Z,84.03
2022-12-03T02:51:52.332Z,83.93
2022-12-03T02:52:52.524Z,83.93
2022-12-03T02:53:52.254Z,84.23
2022-12-03T02:54:52.549Z,84.03
2022-12-03T02:55:52.272Z,83.93
2022-12-03T02:56:52.381Z,84.27
2022-12-03T02:57:52.269Z,84.17
2022-12-03T02:58:52.534Z,84.07
2022-12-03T02:59:52.197Z,83.37
2022-12-03T03:00:52.266Z,84.07
2022-12-03T03:01:52.179Z,84.17
2022-12-03T03:02:52.204Z,84.17
2022-12-03T03:03:52.740Z,84.27
2022-12-03T03:04:53.401Z,83.37
2022-12-03T03:05:52.431Z,83.77
2022-12-03T03:06:52.249Z,84.27
2022-12-03T03:07:52.205Z,84.47
2022-12-03T03:08:52.397Z,84.47
2022-12-03T03:09:52.049Z,84.47
2022-12-03T03:10:52.179Z,84.37
2022-12-03T03:11:52.344Z,84.17
2022-12-03T03:12:52.067Z,84.17
2022-12-03T03:13:52.153Z,84.27
2022-12-03T03:14:52.508Z,84.37
2022-12-03T03:15:52.096Z,84.37
2022-12-03T03:16:52.129Z,84.27
2022-12-03T03:17:52.016Z,84.27
2022-12-03T03:18:52.067Z,84.27
2022-12-03T03:19:52.276Z,84.17
2022-12-03T03:20:52.009Z,84.27
2022-12-03T03:21:51.990Z,84.37
2022-12-03T03:22:51.998Z,83.97
2022-12-03T03:23:52.103Z,84.17
2022-12-03T03:24:53.031Z,84.27
2022-12-03T03:25:52.063Z,84.47
2022-12-03T03:26:51.923Z,84.47
2022-12-03T03:27:52.032Z,84.27
2022-12-03T03:28:51.959Z,84.37
2022-12-03T03:29:51.862Z,84.17
2022-12-03T03:30:51.896Z,83.77
2022-12-03T03:31:51.825Z,83.77
2022-12-03T03:32:52.574Z,83.87
2022-12-03T03:33:53.712Z,83.97
2022-12-03T03:34:52.198Z,83.97
2022-12-03T03:35:51.778Z,84.07
2022-12-03T03:36:51.832Z,84.47
2022-12-03T03:37:52.598Z,83.87
2022-12-03T03:38:52.006Z,83.57
2022-12-03T03:39:52.013Z,83.67
2022-12-03T03:40:51.811Z,83.97
2022-12-03T03:41:51.717Z,84.11
2022-12-03T03:42:52.700Z,84.21
2022-12-03T03:43:51.827Z,84.11
2022-12-03T03:44:52.323Z,84.11
2022-12-03T03:45:51.786Z,84.21
2022-12-03T03:46:51.657Z,84.31
2022-12-03T03:47:52.216Z,84.11
2022-12-03T03:48:51.661Z,84.21
2022-12-03T03:49:51.663Z,83.91
2022-12-03T03:50:51.572Z,83.71
2022-12-03T03:51:51.676Z,83.81
2022-12-03T03:52:51.686Z,83.81
2022-12-03T03:53:51.598Z,83.91
2022-12-03T03:54:52.864Z,83.71
2022-12-03T03:55:51.598Z,83.61
2022-12-03T03:56:51.519Z,83.81
2022-12-03T03:57:51.518Z,84.01
2022-12-03T03:58:52.260Z,83.71
2022-12-03T03:59:51.627Z,83.61
2022-12-03T04:00:52.794Z,83.61
2022-12-03T04:01:51.652Z,83.41
2022-12-03T04:02:51.444Z,83.41
2022-12-03T04:03:51.483Z,83.61
2022-12-03T04:04:51.804Z,83.71
2022-12-03T04:05:52.099Z,83.81
2022-12-03T04:06:52.085Z,83.61
2022-12-03T04:07:51.577Z,83.71
2022-12-03T04:08:51.501Z,83.71
2022-12-03T04:09:52.516Z,83.71
2022-12-03T04:10:51.604Z,83.61
2022-12-03T04:11:51.515Z,83.71
2022-12-03T04:12:51.517Z,83.81
2022-12-03T04:13:51.424Z,83.51
2022-12-03T04:14:52.619Z,83.21
2022-12-03T04:15:51.444Z,83.31
2022-12-03T04:16:53.247Z,83.41
2022-12-03T04:17:52.267Z,83.41
2022-12-03T04:18:51.357Z,83.61
2022-12-03T04:19:52.089Z,83.71
2022-12-03T04:20:51.257Z,83.71
2022-12-03T04:21:51.383Z,83.61
2022-12-03T04:22:51.689Z,83.61
2022-12-03T04:23:52.000Z,83.61
2022-12-03T04:24:51.689Z,83.61
2022-12-03T04:25:51.194Z,83.61
2022-12-03T04:26:51.192Z,83.65
2022-12-03T04:27:51.302Z,83.85
2022-12-03T04:28:51.619Z,83.95
2022-12-03T04:29:51.310Z,83.85
2022-12-03T04:30:51.273Z,83.75
2022-12-03T04:31:51.120Z,83.75
2022-12-03T04:32:51.227Z,83.65
2022-12-03T04:33:51.143Z,83.45
2022-12-03T04:34:53.410Z,83.65
2022-12-03T04:35:51.221Z,83.85
2022-12-03T04:36:51.171Z,84.15
2022-12-03T04:37:51.058Z,84.05
2022-12-03T04:38:51.185Z,83.95
2022-12-03T04:39:51.067Z,83.95
2022-12-03T04:40:51.593Z,83.75
2022-12-03T04:41:51.091Z,83.61
2022-12-03T04:42:50.996Z,83.81
2022-12-03T04:43:51.007Z,83.61
2022-12-03T04:44:51.191Z,83.41
2022-12-03T04:45:51.605Z,83.21
2022-12-03T04:46:51.124Z,83.21
2022-12-03T04:47:51.028Z,83.21
2022-12-03T04:48:51.030Z,83.11
2022-12-03T04:49:50.957Z,82.91
2022-12-03T04:50:50.946Z,82.81
2022-12-03T04:51:50.949Z,82.91
2022-12-03T04:52:52.601Z,82.91
2022-12-03T04:53:50.971Z,83.25
2022-12-03T04:54:51.011Z,83.35
2022-12-03T04:55:50.879Z,83.65
2022-12-03T04:56:50.912Z,83.65
2022-12-03T04:57:51.500Z,83.61
2022-12-03T04:58:51.113Z,83.51
2022-12-03T04:59:50.911Z,83.35
2022-12-03T05:00:50.894Z,83.45
2022-12-03T05:01:51.091Z,83.45
2022-12-03T05:02:50.870Z,83.65
2022-12-03T05:03:51.548Z,83.55
2022-12-03T05:04:51.215Z,83.65
2022-12-03T05:05:50.738Z,83.85
2022-12-03T05:06:50.746Z,83.65
2022-12-03T05:07:50.885Z,83.55
2022-12-03T05:08:50.757Z,83.65
2022-12-03T05:09:50.768Z,83.45
2022-12-03T05:10:50.770Z,83.35
2022-12-03T05:11:50.683Z,83.55
2022-12-03T05:12:50.678Z,83.55
2022-12-03T05:13:50.688Z,83.55
2022-12-03T05:14:50.885Z,83.55
2022-12-03T05:15:50.712Z,83.55
2022-12-03T05:16:50.780Z,83.75
2022-12-03T05:17:50.613Z,83.55
2022-12-03T05:18:50.629Z,83.65
2022-12-03T05:19:50.631Z,83.65
2022-12-03T05:20:53.453Z,83.65
2022-12-03T05:21:50.629Z,83.55
2022-12-03T05:22:50.660Z,83.51
2022-12-03T05:23:50.568Z,83.51
2022-12-03T05:24:50.725Z,83.41
2022-12-03T05:25:50.580Z,83.31
2022-12-03T05:26:50.581Z,83.41
2022-12-03T05:27:51.093Z,83.11
2022-12-03T05:28:50.598Z,82.91
2022-12-03T05:29:50.504Z,82.91
2022-12-03T05:30:50.576Z,83.01
2022-12-03T05:31:50.519Z,83.11
2022-12-03T05:32:50.507Z,83.11
2022-12-03T05:33:50.516Z,83.11
2022-12-03T05:34:50.773Z,83.31
2022-12-03T05:35:50.441Z,83.11
2022-12-03T05:36:50.444Z,82.71
2022-12-03T05:37:50.448Z,82.51
2022-12-03T05:38:50.453Z,82.61
2022-12-03T05:39:50.568Z,82.61
2022-12-03T05:40:50.465Z,82.71
2022-12-03T05:41:50.379Z,82.81
2022-12-03T05:42:50.623Z,82.61
2022-12-03T05:43:50.402Z,82.81
2022-12-03T05:44:50.342Z,82.81
2022-12-03T05:45:51.242Z,82.91
2022-12-03T05:46:50.400Z,82.91
2022-12-03T05:47:50.461Z,82.91
2022-12-03T05:48:50.464Z,82.81
2022-12-03T05:49:50.365Z,82.81
2022-12-03T05:50:50.344Z,82.81
2022-12-03T05:51:55.120Z,82.91
2022-12-03T05:52:50.667Z,82.91
2022-12-03T05:53:50.402Z,82.91
2022-12-03T05:54:50.431Z,82.91
2022-12-03T05:55:50.274Z,82.91
2022-12-03T05:56:50.219Z,83.11
2022-12-03T05:57:50.276Z,83.31
2022-12-03T05:58:50.588Z,83.11
2022-12-03T05:59:50.193Z,83.11
2022-12-03T06:00:50.193Z,83.01
2022-12-03T06:01:50.210Z,83.11
2022-12-03T06:02:50.312Z,83.21
2022-12-03T06:03:50.277Z,83.41
2022-12-03T06:04:50.165Z,83.51
2022-12-03T06:05:50.141Z,83.71
2022-12-03T06:06:50.242Z,83.71
2022-12-03T06:07:50.251Z,83.71
2022-12-03T06:08:50.149Z,83.51
2022-12-03T06:09:50.098Z,83.21
2022-12-03T06:10:50.152Z,83.11
2022-12-03T06:11:50.177Z,83.21
2022-12-03T06:12:50.177Z,83.11
2022-12-03T06:13:50.074Z,83.07
2022-12-03T06:14:50.129Z,82.97
2022-12-03T06:15:50.175Z,82.77
2022-12-03T06:16:50.088Z,82.67
2022-12-03T06:17:50.010Z,82.67
2022-12-03T06:18:50.045Z,82.77
2022-12-03T06:19:50.016Z,82.97
2022-12-03T06:20:50.031Z,82.97
2022-12-03T06:21:50.036Z,82.97
2022-12-03T06:22:50.043Z,83.17
2022-12-03T06:23:49.977Z,83.17
2022-12-03T06:24:49.949Z,83.07
2022-12-03T06:25:49.963Z,82.97
2022-12-03T06:26:49.996Z,82.97
2022-12-03T06:27:49.911Z,83.07
2022-12-03T06:28:49.991Z,83.07
2022-12-03T06:29:49.916Z,82.87
2022-12-03T06:30:49.919Z,82.77
2022-12-03T06:31:49.888Z,82.17
2022-12-03T06:32:49.927Z,82.41
2022-12-03T06:33:49.947Z,82.81
2022-12-03T06:34:50.685Z,82.91
2022-12-03T06:35:49.814Z,83.01
2022-12-03T06:36:49.865Z,82.81
2022-12-03T06:37:49.871Z,83.01
2022-12-03T06:38:49.868Z,83.31
2022-12-03T06:39:49.843Z,83.41
2022-12-03T06:40:49.884Z,83.55
2022-12-03T06:41:49.808Z,83.75
2022-12-03T06:42:49.787Z,84.05
2022-12-03T06:43:49.777Z,84.05
2022-12-03T06:44:49.778Z,84.05
2022-12-03T06:45:49.815Z,84.15
2022-12-03T06:46:49.973Z,84.15
2022-12-03T06:47:49.722Z,84.15
2022-12-03T06:48:49.732Z,84.15
2022-12-03T06:49:49.736Z,84.05
2022-12-03T06:50:49.848Z,84.05
2022-12-03T06:51:49.718Z,84.05
2022-12-03T06:52:49.745Z,84.15
2022-12-03T06:53:49.627Z,84.15
2022-12-03T06:54:49.644Z,84.15
2022-12-03T06:55:49.544Z,83.95
2022-12-03T06:56:49.546Z,83.95
2022-12-03T06:57:49.684Z,84.05
2022-12-03T06:58:49.563Z,84.25
2022-12-03T06:59:49.590Z,84.25
2022-12-03T07:00:49.625Z,84.35
2022-12-03T07:01:49.551Z,84.29
2022-12-03T07:02:49.539Z,84.39
2022-12-03T07:03:49.518Z,84.39
2022-12-03T07:04:49.625Z,84.39
2022-12-03T07:05:49.506Z,84.49
2022-12-03T07:06:49.438Z,84.49
2022-12-03T07:07:49.486Z,84.59
2022-12-03T07:08:49.448Z,84.59
2022-12-03T07:09:49.451Z,84.69
2022-12-03T07:10:49.477Z,84.59
2022-12-03T07:11:49.472Z,84.59
2022-12-03T07:12:49.383Z,84.59
2022-12-03T07:13:49.379Z,84.65
2022-12-03T07:14:49.498Z,84.65
2022-12-03T07:15:49.435Z,84.45
2022-12-03T07:16:49.404Z,84.45
2022-12-03T07:17:49.390Z,84.45
2022-12-03T07:18:49.414Z,84.35
2022-12-03T07:19:49.316Z,84.05
2022-12-03T07:20:49.330Z,83.85
2022-12-03T07:21:49.335Z,83.85
2022-12-03T07:22:49.330Z,83.85
2022-12-03T07:23:49.445Z,84.15
2022-12-03T07:24:49.353Z,84.15
2022-12-03T07:25:49.283Z,84.25
2022-12-03T07:26:49.317Z,84.25
2022-12-03T07:27:49.282Z,84.15
2022-12-03T07:28:49.299Z,84.15
2022-12-03T07:29:49.234Z,84.15
2022-12-03T07:30:49.186Z,83.95
2022-12-03T07:31:49.374Z,83.95
2022-12-03T07:32:49.316Z,84.05
2022-12-03T07:33:49.236Z,83.85
2022-12-03T07:34:49.330Z,83.95
2022-12-03T07:35:49.174Z,84.05
2022-12-03T07:36:49.236Z,84.15
2022-12-03T07:37:49.244Z,84.15
2022-12-03T07:38:49.202Z,84.15
2022-12-03T07:39:49.101Z,84.15
2022-12-03T07:40:49.205Z,84.15
2022-12-03T07:41:49.110Z,84.15
2022-12-03T07:42:49.116Z,83.95
2022-12-03T07:43:49.186Z,84.05
2022-12-03T07:44:49.075Z,84.05
2022-12-03T07:45:49.100Z,83.85
2022-12-03T07:46:49.275Z,83.65
2022-12-03T07:47:49.146Z,83.95
2022-12-03T07:48:49.053Z,84.15
2022-12-03T07:49:49.162Z,84.15
2022-12-03T07:50:48.966Z,84.35
2022-12-03T07:51:48.975Z,84.25
2022-12-03T07:52:49.091Z,84.45
2022-12-03T07:53:48.988Z,84.35
2022-12-03T07:54:48.993Z,84.15
2022-12-03T07:55:48.943Z,84.05
2022-12-03T07:56:48.910Z,84.05
2022-12-03T07:57:48.912Z,84.15
2022-12-03T07:58:48.970Z,83.85
2022-12-03T07:59:48.933Z,83.95
2022-12-03T08:00:48.942Z,84.05
2022-12-03T08:01:48.917Z,84.01
2022-12-03T08:02:48.917Z,84.01
2022-12-03T08:03:48.853Z,83.91
2022-12-03T08:04:48.863Z,83.71
2022-12-03T08:05:48.865Z,83.71
2022-12-03T08:06:48.872Z,83.81
2022-12-03T08:07:48.889Z,83.91
2022-12-03T08:08:48.781Z,84.11
2022-12-03T08:09:48.787Z,84.01
2022-12-03T08:10:48.850Z,84.31
2022-12-03T08:11:48.756Z,84.01
2022-12-03T08:12:48.750Z,83.81
2022-12-03T08:13:48.713Z,83.91
2022-12-03T08:14:48.660Z,84.01
2022-12-03T08:15:48.724Z,84.11
2022-12-03T08:16:48.990Z,84.11
2022-12-03T08:17:48.645Z,84.11
2022-12-03T08:18:48.644Z,84.01
2022-12-03T08:19:48.645Z,84.01
2022-12-03T08:20:48.652Z,84.11
2022-12-03T08:21:48.609Z,84.31
2022-12-03T08:22:48.619Z,84.21
2022-12-03T08:23:48.575Z,84.21
2022-12-03T08:24:48.635Z,84.11
2022-12-03T08:25:48.635Z,84.01
2022-12-03T08:26:48.648Z,84.11
2022-12-03T08:27:48.548Z,84.11
2022-12-03T08:28:48.618Z,84.21
2022-12-03T08:29:48.664Z,84.21
2022-12-03T08:30:48.519Z,84.31
2022-12-03T08:31:48.558Z,84.21
2022-12-03T08:32:48.495Z,84.11
2022-12-03T08:33:48.498Z,84.31
2022-12-03T08:34:48.512Z,84.31
2022-12-03T08:35:48.515Z,84.31
2022-12-03T08:36:48.521Z,83.71
2022-12-03T08:37:48.524Z,83.21
2022-12-03T08:38:48.530Z,83.01
2022-12-03T08:39:48.548Z,83.11
2022-12-03T08:40:48.534Z,83.01
2022-12-03T08:41:48.451Z,82.51
2022-12-03T08:42:48.560Z,82.51
2022-12-03T08:43:48.459Z,82.61
2022-12-03T08:44:48.482Z,82.51
2022-12-03T08:45:48.397Z,82.61
2022-12-03T08:46:48.484Z,82.71
2022-12-03T08:47:48.705Z,82.81
2022-12-03T08:48:49.446Z,82.91
2022-12-03T08:49:48.397Z,83.11
2022-12-03T08:50:48.420Z,83.11
2022-12-03T08:51:48.320Z,82.91
2022-12-03T08:52:48.832Z,83.01
2022-12-03T08:53:48.473Z,82.71
2022-12-03T08:54:48.538Z,82.41
2022-12-03T08:55:48.259Z,82.61
2022-12-03T08:56:48.549Z,82.51
2022-12-03T08:57:48.389Z,82.61
2022-12-03T08:58:48.371Z,82.71
2022-12-03T08:59:48.276Z,82.91
2022-12-03T09:00:48.380Z,82.91
2022-12-03T09:01:49.552Z,83.01
2022-12-03T09:02:48.222Z,82.91
2022-12-03T09:03:48.463Z,82.91
2022-12-03T09:04:48.623Z,82.91
2022-12-03T09:05:48.883Z,82.91
2022-12-03T09:06:48.321Z,82.41
2022-12-03T09:07:48.439Z,82.61
2022-12-03T09:08:48.734Z,82.61
2022-12-03T09:09:48.196Z,82.51
2022-12-03T09:10:49.018Z,82.41
2022-12-03T09:11:48.205Z,82.51
2022-12-03T09:12:48.187Z,82.47
2022-12-03T09:13:48.223Z,82.37
2022-12-03T09:14:48.170Z,82.28
2022-12-03T09:15:48.235Z,82.28
2022-12-03T09:16:48.262Z,82.37
2022-12-03T09:17:48.146Z,82.47
2022-12-03T09:18:48.187Z,82.47
2022-12-03T09:19:48.363Z,82.57
2022-12-03T09:20:48.104Z,82.67
2022-12-03T09:21:48.117Z,82.77
2022-12-03T09:22:48.254Z,82.67
2022-12-03T09:23:48.162Z,82.37
2022-12-03T09:24:48.908Z,82.07
2022-12-03T09:25:48.092Z,82.07
2022-12-03T09:26:48.108Z,81.48
2022-12-03T09:27:48.051Z,81.77
2022-12-03T09:28:48.089Z,81.98
2022-12-03T09:29:48.020Z,82.28
2022-12-03T09:30:48.026Z,82.17
2022-12-03T09:31:47.990Z,82.57
2022-12-03T09:32:47.989Z,82.17
2022-12-03T09:33:48.661Z,82.28
2022-12-03T09:34:48.060Z,82.47
2022-12-03T09:35:47.935Z,82.51
2022-12-03T09:36:47.973Z,82.61
2022-12-03T09:37:47.870Z,82.61
2022-12-03T09:38:48.425Z,83.01
2022-12-03T09:39:47.894Z,83.11
2022-12-03T09:40:47.889Z,82.81
2022-12-03T09:41:47.867Z,82.61
2022-12-03T09:42:47.796Z,82.71
2022-12-03T09:44:03.815Z,82.91
2022-12-03T09:44:47.815Z,83.01
2022-12-03T09:45:47.890Z,83.21
2022-12-03T09:46:47.816Z,83.21
2022-12-03T09:47:47.746Z,83.41
2022-12-03T09:48:47.844Z,83.01
2022-12-03T09:49:47.744Z,82.41
2022-12-03T09:50:47.747Z,82.21
2022-12-03T09:51:47.758Z,82.71
2022-12-03T09:52:47.765Z,83.01
2022-12-03T09:53:47.681Z,82.51
2022-12-03T09:54:47.840Z,82.51
2022-12-03T09:55:47.677Z,82.71
2022-12-03T09:56:47.687Z,83.01
2022-12-03T09:57:47.703Z,83.31
2022-12-03T09:58:47.709Z,83.01
2022-12-03T09:59:47.620Z,82.81
2022-12-03T10:00:47.627Z,82.67
2022-12-03T10:01:48.268Z,82.47
2022-12-03T10:02:47.636Z,82.28
2022-12-03T10:03:47.640Z,82.57
2022-12-03T10:04:47.618Z,82.67
2022-12-03T10:05:48.362Z,82.97
2022-12-03T10:06:47.555Z,83.27
2022-12-03T10:07:47.592Z,82.97
2022-12-03T10:08:47.603Z,82.64
2022-12-03T10:09:47.484Z,82.53
2022-12-03T10:10:47.587Z,82.53
2022-12-03T10:11:47.482Z,82.23
2022-12-03T10:12:47.495Z,81.93
2022-12-03T10:13:47.503Z,81.34
2022-12-03T10:14:47.498Z,81.63
2022-12-03T10:15:47.411Z,81.34
2022-12-03T10:16:47.514Z,81.43
2022-12-03T10:17:47.436Z,81.63
2022-12-03T10:18:47.502Z,81.73
2022-12-03T10:19:47.437Z,81.73
2022-12-03T10:20:47.438Z,81.73
2022-12-03T10:21:47.366Z,81.73
2022-12-03T10:22:47.456Z,81.84
2022-12-03T10:23:50.830Z,81.93
2022-12-03T10:24:48.192Z,81.04
2022-12-03T10:25:47.375Z,80.83
2022-12-03T10:26:47.372Z,80.54
2022-12-03T10:27:47.278Z,80.44
2022-12-03T10:28:47.289Z,81.04
2022-12-03T10:29:47.293Z,81.43
2022-12-03T10:30:47.360Z,80.24
2022-12-03T10:31:47.338Z,80.44
2022-12-03T10:32:47.317Z,80.74
2022-12-03T10:33:47.221Z,80.64
2022-12-03T10:34:47.218Z,80.83
2022-12-03T10:35:47.236Z,80.34
2022-12-03T10:36:48.283Z,80.14
2022-12-03T10:37:47.242Z,79.84
2022-12-03T10:38:47.155Z,80.44
2022-12-03T10:39:51.077Z,80.54
2022-12-03T10:40:48.186Z,80.74
2022-12-03T10:41:47.211Z,81.13
2022-12-03T10:42:47.169Z,81.04
2022-12-03T10:43:47.176Z,81.04
2022-12-03T10:44:47.077Z,80.74
2022-12-03T10:45:47.208Z,81.04
2022-12-03T10:46:49.541Z,80.64
2022-12-03T10:47:47.157Z,80.44
2022-12-03T10:48:47.097Z,79.54
2022-12-03T10:49:47.113Z,79.44
2022-12-03T10:50:49.521Z,79.54
2022-12-03T10:51:50.931Z,79.64
2022-12-03T10:52:47.051Z,80.14
2022-12-03T10:53:47.056Z,80.14
2022-12-03T10:54:47.042Z,79.94
2022-12-03T10:55:49.152Z,80.24
2022-12-03T10:56:46.958Z,79.90
2022-12-03T10:57:46.966Z,79.90
2022-12-03T10:58:47.061Z,80.10
2022-12-03T10:59:46.935Z,79.90
2022-12-03T11:00:47.078Z,79.70
2022-12-03T11:01:47.105Z,80.00
2022-12-03T11:02:53.050Z,79.50
2022-12-03T11:03:47.038Z,79.20
2022-12-03T11:04:46.963Z,79.00
2022-12-03T11:05:46.932Z,79.27
2022-12-03T11:06:47.842Z,79.27
2022-12-03T11:07:46.938Z,79.57
2022-12-03T11:08:49.275Z,79.36
2022-12-03T11:09:46.847Z,79.46
2022-12-03T11:10:47.160Z,79.27
2022-12-03T11:11:46.857Z,79.03
2022-12-03T11:12:46.970Z,78.63
2022-12-03T11:13:46.878Z,78.43
2022-12-03T11:14:48.847Z,78.63
2022-12-03T11:15:47.059Z,78.63
2022-12-03T11:16:47.009Z,77.83
2022-12-03T11:17:46.799Z,78.03
2022-12-03T11:18:46.805Z,78.13
2022-12-03T11:19:46.812Z,78.33
2022-12-03T11:20:46.717Z,78.23
2022-12-03T11:21:46.716Z,77.63
2022-12-03T11:22:48.789Z,78.03
2022-12-03T11:23:46.802Z,77.23
2022-12-03T11:24:46.751Z,76.90
2022-12-03T11:25:46.754Z,77.50
2022-12-03T11:26:46.657Z,77.50
2022-12-03T11:27:46.660Z,76.79
2022-12-03T11:28:46.776Z,76.34
2022-12-03T11:29:47.106Z,76.64
2022-12-03T11:30:47.074Z,77.33
2022-12-03T11:31:48.231Z,77.83
2022-12-03T11:32:46.727Z,77.20
2022-12-03T11:33:49.188Z,76.60
2022-12-03T11:34:47.866Z,76.79
2022-12-03T11:35:48.673Z,77.39
2022-12-03T11:37:01.583Z,77.80
2022-12-03T11:37:50.625Z,77.39
2022-12-03T11:38:52.914Z,77.20
2022-12-03T11:39:46.539Z,77.16
2022-12-03T11:40:46.759Z,77.46
2022-12-03T11:41:46.554Z,77.36
2022-12-03T11:42:46.550Z,76.56
2022-12-03T11:43:46.465Z,76.26
2022-12-03T11:44:46.568Z,76.36
2022-12-03T11:45:46.511Z,76.76
2022-12-03T11:46:46.598Z,76.62
2022-12-03T11:47:46.491Z,76.72
2022-12-03T11:48:46.396Z,76.62
2022-12-03T11:49:46.417Z,76.13
2022-12-03T11:50:46.421Z,76.43
2022-12-03T11:51:46.351Z,75.93
2022-12-03T11:52:46.431Z,76.03
2022-12-03T11:53:46.321Z,75.83
2022-12-03T11:54:46.333Z,75.33
2022-12-03T11:55:46.352Z,74.80
2022-12-03T11:56:47.990Z,75.10
2022-12-03T11:57:46.353Z,74.90
2022-12-03T11:58:46.383Z,74.40
2022-12-03T11:59:46.260Z,74.30
2022-12-03T12:00:46.266Z,75.10
2022-12-03T12:01:46.277Z,74.90
2022-12-03T12:02:46.332Z,74.00
2022-12-03T12:03:46.395Z,73.97
2022-12-03T12:04:46.301Z,73.77
2022-12-03T12:05:46.304Z,74.56
2022-12-03T12:06:50.161Z,74.16
2022-12-03T12:07:46.309Z,73.57
2022-12-03T12:08:46.330Z,73.47
2022-12-03T12:09:46.169Z,73.86
2022-12-03T12:10:46.853Z,73.37
2022-12-03T12:11:46.148Z,73.54
2022-12-03T12:12:54.347Z,73.73
2022-12-03T12:13:46.165Z,73.73
2022-12-03T12:14:46.164Z,73.63
2022-12-03T12:15:46.189Z,72.04
2022-12-03T12:16:46.406Z,71.84
2022-12-03T12:17:46.083Z,72.24
2022-12-03T12:18:46.096Z,71.75
2022-12-03T12:19:51.080Z,71.84
2022-12-03T12:20:46.103Z,70.95
2022-12-03T12:21:46.113Z,71.15
2022-12-03T12:22:46.085Z,71.55
2022-12-03T12:23:46.635Z,71.34
2022-12-03T12:24:46.006Z,71.55
2022-12-03T12:25:50.857Z,72.14
2022-12-03T12:26:46.044Z,72.41
2022-12-03T12:27:45.984Z,71.91
2022-12-03T12:28:46.053Z,72.11
2022-12-03T12:29:45.941Z,71.11
2022-12-03T12:30:45.963Z,71.11
2022-12-03T12:31:50.775Z,71.41
2022-12-03T12:32:46.186Z,71.51
2022-12-03T12:33:45.989Z,71.31
2022-12-03T12:34:45.999Z,71.41
2022-12-03T12:35:45.871Z,70.42
2022-12-03T12:36:45.911Z,70.02
2022-12-03T12:37:48.119Z,70.42
2022-12-03T12:38:45.994Z,69.62
2022-12-03T12:39:45.890Z,69.89
2022-12-03T12:40:45.943Z,69.89
2022-12-03T12:41:45.807Z,68.80
2022-12-03T12:42:46.165Z,67.41
2022-12-03T12:43:45.864Z,68.80
2022-12-03T12:44:45.863Z,68.96
2022-12-03T12:45:45.799Z,67.87
2022-12-03T12:46:48.340Z,66.68
2022-12-03T12:47:45.983Z,69.06
2022-12-03T12:48:45.765Z,68.33
2022-12-03T12:49:51.494Z,68.63
2022-12-03T12:50:45.809Z,67.84
2022-12-03T12:51:45.780Z,68.10
2022-12-03T12:52:45.782Z,67.71